sensor_id;sensor_type;location;lat;lon;timestamp;temperature;humidity
7494;DHT22;3788;49.902;8.590;2023-02-05T00:00:25;6.10;99.50
7494;DHT22;3788;49.902;8.590;2023-02-05T00:02:52;6.10;99.40
7494;DHT22;3788;49.902;8.590;2023-02-05T00:05:19;6.00;99.50
7494;DHT22;3788;49.902;8.590;2023-02-05T00:07:45;6.10;99.50
7494;DHT22;3788;49.902;8.590;2023-02-05T00:10:12;6.10;99.40
7494;DHT22;3788;49.902;8.590;2023-02-05T00:12:38;6.10;99.40
7494;DHT22;3788;49.902;8.590;2023-02-05T00:15:08;6.10;99.30
7494;DHT22;3788;49.902;8.590;2023-02-05T00:17:35;6.10;99.30
7494;DHT22;3788;49.902;8.590;2023-02-05T00:20:02;6.10;99.30
7494;DHT22;3788;49.902;8.590;2023-02-05T00:22:28;6.10;99.20
7494;DHT22;3788;49.902;8.590;2023-02-05T00:24:55;6.10;99.20
7494;DHT22;3788;49.902;8.590;2023-02-05T00:27:22;6.20;99.30
7494;DHT22;3788;49.902;8.590;2023-02-05T00:29:49;6.10;99.20
7494;DHT22;3788;49.902;8.590;2023-02-05T00:32:17;6.20;99.20
7494;DHT22;3788;49.902;8.590;2023-02-05T00:34:44;6.20;99.30
7494;DHT22;3788;49.902;8.590;2023-02-05T00:37:10;6.10;99.40
7494;DHT22;3788;49.902;8.590;2023-02-05T00:39:37;6.10;99.40
7494;DHT22;3788;49.902;8.590;2023-02-05T00:42:04;6.00;99.50
7494;DHT22;3788;49.902;8.590;2023-02-05T00:44:31;6.00;99.60
7494;DHT22;3788;49.902;8.590;2023-02-05T00:46:58;6.00;99.60
7494;DHT22;3788;49.902;8.590;2023-02-05T00:49:26;6.00;99.60
7494;DHT22;3788;49.902;8.590;2023-02-05T00:51:53;6.00;99.50
7494;DHT22;3788;49.902;8.590;2023-02-05T00:54:19;5.80;99.50
7494;DHT22;3788;49.902;8.590;2023-02-05T00:56:46;5.70;99.70
7494;DHT22;3788;49.902;8.590;2023-02-05T00:59:13;5.70;99.80
7494;DHT22;3788;49.902;8.590;2023-02-05T01:01:39;5.60;99.90
7494;DHT22;3788;49.902;8.590;2023-02-05T01:04:06;5.60;99.90
7494;DHT22;3788;49.902;8.590;2023-02-05T01:06:34;5.50;99.90
7494;DHT22;3788;49.902;8.590;2023-02-05T01:09:01;5.50;99.90
7494;DHT22;3788;49.902;8.590;2023-02-05T01:11:27;5.40;99.90
7494;DHT22;3788;49.902;8.590;2023-02-05T01:13:54;5.30;99.90
7494;DHT22;3788;49.902;8.590;2023-02-05T01:16:21;5.20;99.90
7494;DHT22;3788;49.902;8.590;2023-02-05T01:18:48;5.10;99.90
7494;DHT22;3788;49.902;8.590;2023-02-05T01:21:15;5.10;99.90
7494;DHT22;3788;49.902;8.590;2023-02-05T01:23:43;5.00;99.90
7494;DHT22;3788;49.902;8.590;2023-02-05T01:26:09;5.00;99.90
7494;DHT22;3788;49.902;8.590;2023-02-05T01:28:36;4.90;99.90
7494;DHT22;3788;49.902;8.590;2023-02-05T01:31:03;4.90;99.90
7494;DHT22;3788;49.902;8.590;2023-02-05T01:33:29;4.80;99.90
7494;DHT22;3788;49.902;8.590;2023-02-05T01:35:56;4.90;99.90
7494;DHT22;3788;49.902;8.590;2023-02-05T01:38:23;4.90;99.90
7494;DHT22;3788;49.902;8.590;2023-02-05T01:40:51;4.90;99.90
7494;DHT22;3788;49.902;8.590;2023-02-05T01:43:18;4.90;99.90
7494;DHT22;3788;49.902;8.590;2023-02-05T01:46:10;4.90;99.90
7494;DHT22;3788;49.902;8.590;2023-02-05T01:48:41;4.90;99.90
7494;DHT22;3788;49.902;8.590;2023-02-05T01:51:10;5.00;99.90
7494;DHT22;3788;49.902;8.590;2023-02-05T01:53:39;5.00;99.90
7494;DHT22;3788;49.902;8.590;2023-02-05T01:56:10;5.00;99.90
7494;DHT22;3788;49.902;8.590;2023-02-05T01:58:41;5.10;99.90
7494;DHT22;3788;49.902;8.590;2023-02-05T02:01:10;5.10;99.90
7494;DHT22;3788;49.902;8.590;2023-02-05T02:03:37;5.00;99.90
7494;DHT22;3788;49.902;8.590;2023-02-05T02:06:05;5.00;99.90
7494;DHT22;3788;49.902;8.590;2023-02-05T02:08:32;5.00;99.90
7494;DHT22;3788;49.902;8.590;2023-02-05T02:11:01;5.00;99.90
7494;DHT22;3788;49.902;8.590;2023-02-05T02:13:32;5.00;99.90
7494;DHT22;3788;49.902;8.590;2023-02-05T02:16:00;5.00;99.90
7494;DHT22;3788;49.902;8.590;2023-02-05T02:18:28;5.00;99.90
7494;DHT22;3788;49.902;8.590;2023-02-05T02:24:08;5.00;99.90
7494;DHT22;3788;49.902;8.590;2023-02-05T02:26:52;5.00;99.90
7494;DHT22;3788;49.902;8.590;2023-02-05T02:29:30;5.10;99.90
7494;DHT22;3788;49.902;8.590;2023-02-05T02:32:02;5.00;99.90
7494;DHT22;3788;49.902;8.590;2023-02-05T02:34:33;5.00;99.90
7494;DHT22;3788;49.902;8.590;2023-02-05T02:37:07;5.00;99.90
7494;DHT22;3788;49.902;8.590;2023-02-05T02:39:39;5.00;99.90
7494;DHT22;3788;49.902;8.590;2023-02-05T02:42:12;5.10;99.90
7494;DHT22;3788;49.902;8.590;2023-02-05T02:44:45;5.10;99.90
7494;DHT22;3788;49.902;8.590;2023-02-05T02:47:16;5.20;99.90
7494;DHT22;3788;49.902;8.590;2023-02-05T02:49:47;5.20;99.90
7494;DHT22;3788;49.902;8.590;2023-02-05T02:52:17;5.30;99.90
7494;DHT22;3788;49.902;8.590;2023-02-05T02:54:47;5.30;99.90
7494;DHT22;3788;49.902;8.590;2023-02-05T02:57:17;5.30;99.90
7494;DHT22;3788;49.902;8.590;2023-02-05T02:59:47;5.40;99.90
7494;DHT22;3788;49.902;8.590;2023-02-05T03:02:15;5.40;99.90
7494;DHT22;3788;49.902;8.590;2023-02-05T03:04:45;5.30;99.90
7494;DHT22;3788;49.902;8.590;2023-02-05T03:07:17;5.30;99.90
7494;DHT22;3788;49.902;8.590;2023-02-05T03:09:49;5.30;99.90
7494;DHT22;3788;49.902;8.590;2023-02-05T03:12:18;5.30;99.90
7494;DHT22;3788;49.902;8.590;2023-02-05T03:14:46;5.30;99.90
7494;DHT22;3788;49.902;8.590;2023-02-05T03:17:14;5.40;99.90
7494;DHT22;3788;49.902;8.590;2023-02-05T03:19:43;5.40;99.90
7494;DHT22;3788;49.902;8.590;2023-02-05T03:22:10;5.40;99.90
7494;DHT22;3788;49.902;8.590;2023-02-05T03:24:37;5.40;99.90
7494;DHT22;3788;49.902;8.590;2023-02-05T03:27:04;5.40;99.90
7494;DHT22;3788;49.902;8.590;2023-02-05T03:29:35;5.40;99.90
7494;DHT22;3788;49.902;8.590;2023-02-05T03:32:09;5.40;99.90
7494;DHT22;3788;49.902;8.590;2023-02-05T03:34:47;5.40;99.90
7494;DHT22;3788;49.902;8.590;2023-02-05T03:37:20;5.40;99.90
7494;DHT22;3788;49.902;8.590;2023-02-05T03:39:58;5.40;99.90
7494;DHT22;3788;49.902;8.590;2023-02-05T03:42:35;5.50;99.90
7494;DHT22;3788;49.902;8.590;2023-02-05T03:45:21;5.50;99.90
7494;DHT22;3788;49.902;8.590;2023-02-05T03:48:02;5.50;99.90
7494;DHT22;3788;49.902;8.590;2023-02-05T03:50:32;5.60;99.90
7494;DHT22;3788;49.902;8.590;2023-02-05T03:53:05;5.60;99.90
7494;DHT22;3788;49.902;8.590;2023-02-05T03:55:37;5.60;99.90
7494;DHT22;3788;49.902;8.590;2023-02-05T03:58:08;5.60;99.90
7494;DHT22;3788;49.902;8.590;2023-02-05T04:00:36;5.60;99.90
7494;DHT22;3788;49.902;8.590;2023-02-05T04:03:06;5.70;99.90
7494;DHT22;3788;49.902;8.590;2023-02-05T04:05:33;5.70;99.90
7494;DHT22;3788;49.902;8.590;2023-02-05T04:07:59;5.70;99.90
7494;DHT22;3788;49.902;8.590;2023-02-05T04:10:26;5.70;99.90
7494;DHT22;3788;49.902;8.590;2023-02-05T04:12:53;5.70;99.90
7494;DHT22;3788;49.902;8.590;2023-02-05T04:15:20;5.60;99.90
7494;DHT22;3788;49.902;8.590;2023-02-05T04:17:46;5.60;99.90
7494;DHT22;3788;49.902;8.590;2023-02-05T04:20:15;5.60;99.90
7494;DHT22;3788;49.902;8.590;2023-02-05T04:22:41;5.60;99.90
7494;DHT22;3788;49.902;8.590;2023-02-05T04:25:08;5.60;99.90
7494;DHT22;3788;49.902;8.590;2023-02-05T04:27:35;5.60;99.90
7494;DHT22;3788;49.902;8.590;2023-02-05T04:30:02;5.60;99.90
7494;DHT22;3788;49.902;8.590;2023-02-05T04:32:31;5.60;99.90
7494;DHT22;3788;49.902;8.590;2023-02-05T04:34:58;5.50;99.90
7494;DHT22;3788;49.902;8.590;2023-02-05T04:37:26;5.50;99.90
7494;DHT22;3788;49.902;8.590;2023-02-05T04:39:52;5.50;99.90
7494;DHT22;3788;49.902;8.590;2023-02-05T04:42:19;5.50;99.90
7494;DHT22;3788;49.902;8.590;2023-02-05T04:44:45;5.60;99.90
7494;DHT22;3788;49.902;8.590;2023-02-05T04:47:12;5.60;99.90
7494;DHT22;3788;49.902;8.590;2023-02-05T04:49:39;5.60;99.90
7494;DHT22;3788;49.902;8.590;2023-02-05T04:52:06;5.60;99.90
7494;DHT22;3788;49.902;8.590;2023-02-05T04:54:35;5.60;99.90
7494;DHT22;3788;49.902;8.590;2023-02-05T04:57:02;5.60;99.90
7494;DHT22;3788;49.902;8.590;2023-02-05T04:59:29;5.70;99.90
7494;DHT22;3788;49.902;8.590;2023-02-05T05:01:56;5.70;99.90
7494;DHT22;3788;49.902;8.590;2023-02-05T05:04:23;5.70;99.90
7494;DHT22;3788;49.902;8.590;2023-02-05T05:06:50;5.70;99.90
7494;DHT22;3788;49.902;8.590;2023-02-05T05:09:16;5.70;99.90
7494;DHT22;3788;49.902;8.590;2023-02-05T05:11:46;5.70;99.90
7494;DHT22;3788;49.902;8.590;2023-02-05T05:14:13;5.70;99.90
7494;DHT22;3788;49.902;8.590;2023-02-05T05:16:39;5.60;99.90
7494;DHT22;3788;49.902;8.590;2023-02-05T05:19:06;5.50;99.90
7494;DHT22;3788;49.902;8.590;2023-02-05T05:21:33;5.50;99.90
7494;DHT22;3788;49.902;8.590;2023-02-05T05:24:00;5.50;99.90
7494;DHT22;3788;49.902;8.590;2023-02-05T05:26:27;5.50;99.90
7494;DHT22;3788;49.902;8.590;2023-02-05T05:28:56;5.50;99.90
7494;DHT22;3788;49.902;8.590;2023-02-05T05:31:23;5.40;99.90
7494;DHT22;3788;49.902;8.590;2023-02-05T05:33:50;5.40;99.90
7494;DHT22;3788;49.902;8.590;2023-02-05T05:36:17;5.40;99.90
7494;DHT22;3788;49.902;8.590;2023-02-05T05:38:44;5.40;99.90
7494;DHT22;3788;49.902;8.590;2023-02-05T05:41:18;5.50;99.90
7494;DHT22;3788;49.902;8.590;2023-02-05T05:44:04;5.50;99.90
7494;DHT22;3788;49.902;8.590;2023-02-05T05:46:31;5.50;99.90
7494;DHT22;3788;49.902;8.590;2023-02-05T05:49:00;5.50;99.90
7494;DHT22;3788;49.902;8.590;2023-02-05T05:51:27;5.50;99.90
7494;DHT22;3788;49.902;8.590;2023-02-05T05:53:55;5.50;99.90
7494;DHT22;3788;49.902;8.590;2023-02-05T05:56:22;5.50;99.90
7494;DHT22;3788;49.902;8.590;2023-02-05T05:58:49;5.50;99.90
7494;DHT22;3788;49.902;8.590;2023-02-05T06:01:18;5.50;99.90
7494;DHT22;3788;49.902;8.590;2023-02-05T06:03:46;5.50;99.90
7494;DHT22;3788;49.902;8.590;2023-02-05T06:06:13;5.50;99.90
7494;DHT22;3788;49.902;8.590;2023-02-05T06:08:39;5.50;99.90
7494;DHT22;3788;49.902;8.590;2023-02-05T06:11:06;5.40;99.90
7494;DHT22;3788;49.902;8.590;2023-02-05T06:13:33;5.40;99.90
7494;DHT22;3788;49.902;8.590;2023-02-05T06:16:00;5.40;99.90
7494;DHT22;3788;49.902;8.590;2023-02-05T06:18:28;5.40;99.90
7494;DHT22;3788;49.902;8.590;2023-02-05T06:20:55;5.40;99.90
7494;DHT22;3788;49.902;8.590;2023-02-05T06:23:22;5.30;99.90
7494;DHT22;3788;49.902;8.590;2023-02-05T06:25:49;5.30;99.90
7494;DHT22;3788;49.902;8.590;2023-02-05T06:28:16;5.40;99.90
7494;DHT22;3788;49.902;8.590;2023-02-05T06:30:42;5.40;99.90
7494;DHT22;3788;49.902;8.590;2023-02-05T06:33:09;5.30;99.90
7494;DHT22;3788;49.902;8.590;2023-02-05T06:35:39;5.30;99.90
7494;DHT22;3788;49.902;8.590;2023-02-05T06:38:06;5.20;99.90
7494;DHT22;3788;49.902;8.590;2023-02-05T06:40:32;5.20;99.90
7494;DHT22;3788;49.902;8.590;2023-02-05T06:42:59;5.30;99.90
7494;DHT22;3788;49.902;8.590;2023-02-05T06:45:26;5.20;99.90
7494;DHT22;3788;49.902;8.590;2023-02-05T06:47:52;5.20;99.90
7494;DHT22;3788;49.902;8.590;2023-02-05T06:50:20;5.20;99.90
7494;DHT22;3788;49.902;8.590;2023-02-05T06:52:48;5.20;99.90
7494;DHT22;3788;49.902;8.590;2023-02-05T06:55:15;5.20;99.90
7494;DHT22;3788;49.902;8.590;2023-02-05T06:57:42;5.10;99.90
7494;DHT22;3788;49.902;8.590;2023-02-05T07:00:10;5.10;99.90
7494;DHT22;3788;49.902;8.590;2023-02-05T07:02:37;5.10;99.90
7494;DHT22;3788;49.902;8.590;2023-02-05T07:05:04;5.00;99.90
7494;DHT22;3788;49.902;8.590;2023-02-05T07:07:31;5.00;99.90
7494;DHT22;3788;49.902;8.590;2023-02-05T07:10:00;4.90;99.90
7494;DHT22;3788;49.902;8.590;2023-02-05T07:12:27;4.90;99.90
7494;DHT22;3788;49.902;8.590;2023-02-05T07:14:53;4.90;99.90
7494;DHT22;3788;49.902;8.590;2023-02-05T07:17:20;4.80;99.90
7494;DHT22;3788;49.902;8.590;2023-02-05T07:19:47;4.90;99.90
7494;DHT22;3788;49.902;8.590;2023-02-05T07:22:14;4.80;99.90
7494;DHT22;3788;49.902;8.590;2023-02-05T07:24:41;4.80;99.90
7494;DHT22;3788;49.902;8.590;2023-02-05T07:27:09;4.80;99.90
7494;DHT22;3788;49.902;8.590;2023-02-05T07:29:36;4.80;99.90
7494;DHT22;3788;49.902;8.590;2023-02-05T07:32:03;4.70;99.90
7494;DHT22;3788;49.902;8.590;2023-02-05T07:34:29;4.70;99.90
7494;DHT22;3788;49.902;8.590;2023-02-05T07:36:56;4.70;99.90
7494;DHT22;3788;49.902;8.590;2023-02-05T07:39:23;4.80;99.90
7494;DHT22;3788;49.902;8.590;2023-02-05T07:41:49;4.80;99.90
7494;DHT22;3788;49.902;8.590;2023-02-05T07:44:19;4.80;99.90
7494;DHT22;3788;49.902;8.590;2023-02-05T07:46:46;4.90;99.90
7494;DHT22;3788;49.902;8.590;2023-02-05T07:49:13;4.90;99.90
7494;DHT22;3788;49.902;8.590;2023-02-05T07:51:40;5.00;99.90
7494;DHT22;3788;49.902;8.590;2023-02-05T07:54:07;5.10;99.90
7494;DHT22;3788;49.902;8.590;2023-02-05T07:56:35;5.10;99.90
7494;DHT22;3788;49.902;8.590;2023-02-05T07:59:01;5.10;99.90
7494;DHT22;3788;49.902;8.590;2023-02-05T08:01:29;5.10;99.90
7494;DHT22;3788;49.902;8.590;2023-02-05T08:03:56;5.10;99.90
7494;DHT22;3788;49.902;8.590;2023-02-05T08:06:23;5.10;99.90
7494;DHT22;3788;49.902;8.590;2023-02-05T08:08:50;5.10;99.90
7494;DHT22;3788;49.902;8.590;2023-02-05T08:11:17;5.10;99.90
7494;DHT22;3788;49.902;8.590;2023-02-05T08:13:45;5.10;99.90
7494;DHT22;3788;49.902;8.590;2023-02-05T08:16:12;5.10;99.90
7494;DHT22;3788;49.902;8.590;2023-02-05T08:18:41;5.10;99.90
7494;DHT22;3788;49.902;8.590;2023-02-05T08:21:08;5.00;99.90
7494;DHT22;3788;49.902;8.590;2023-02-05T08:23:35;5.00;99.90
7494;DHT22;3788;49.902;8.590;2023-02-05T08:26:02;5.00;99.90
7494;DHT22;3788;49.902;8.590;2023-02-05T08:28:29;5.00;99.90
7494;DHT22;3788;49.902;8.590;2023-02-05T08:30:56;5.10;99.90
7494;DHT22;3788;49.902;8.590;2023-02-05T08:33:23;5.00;99.90
7494;DHT22;3788;49.902;8.590;2023-02-05T08:35:51;5.00;99.90
7494;DHT22;3788;49.902;8.590;2023-02-05T08:38:17;5.00;99.90
7494;DHT22;3788;49.902;8.590;2023-02-05T08:40:44;5.00;99.90
7494;DHT22;3788;49.902;8.590;2023-02-05T08:43:11;5.00;99.90
7494;DHT22;3788;49.902;8.590;2023-02-05T08:45:38;5.00;99.90
7494;DHT22;3788;49.902;8.590;2023-02-05T08:48:04;5.00;99.90
7494;DHT22;3788;49.902;8.590;2023-02-05T08:50:31;5.00;99.90
7494;DHT22;3788;49.902;8.590;2023-02-05T08:52:59;5.10;99.90
7494;DHT22;3788;49.902;8.590;2023-02-05T08:55:26;5.10;99.90
7494;DHT22;3788;49.902;8.590;2023-02-05T08:57:53;5.10;99.90
7494;DHT22;3788;49.902;8.590;2023-02-05T09:00:20;5.20;99.90
7494;DHT22;3788;49.902;8.590;2023-02-05T09:02:47;5.20;99.90
7494;DHT22;3788;49.902;8.590;2023-02-05T09:05:14;5.20;99.90
7494;DHT22;3788;49.902;8.590;2023-02-05T09:07:41;5.20;99.90
7494;DHT22;3788;49.902;8.590;2023-02-05T09:10:10;5.20;99.90
7494;DHT22;3788;49.902;8.590;2023-02-05T09:12:37;5.20;99.90
7494;DHT22;3788;49.902;8.590;2023-02-05T09:15:06;5.10;99.90
7494;DHT22;3788;49.902;8.590;2023-02-05T09:17:33;5.10;99.90
7494;DHT22;3788;49.902;8.590;2023-02-05T09:20:00;5.10;99.90
7494;DHT22;3788;49.902;8.590;2023-02-05T09:22:27;5.10;99.90
7494;DHT22;3788;49.902;8.590;2023-02-05T09:24:53;5.10;99.90
7494;DHT22;3788;49.902;8.590;2023-02-05T09:27:21;5.10;99.90
7494;DHT22;3788;49.902;8.590;2023-02-05T09:29:48;5.00;99.90
7494;DHT22;3788;49.902;8.590;2023-02-05T09:32:15;5.00;99.90
7494;DHT22;3788;49.902;8.590;2023-02-05T09:34:41;5.00;99.90
7494;DHT22;3788;49.902;8.590;2023-02-05T09:37:08;5.00;99.90
7494;DHT22;3788;49.902;8.590;2023-02-05T09:39:35;5.00;99.90
7494;DHT22;3788;49.902;8.590;2023-02-05T09:42:09;5.10;99.90
7494;DHT22;3788;49.902;8.590;2023-02-05T09:45:00;5.00;99.90
7494;DHT22;3788;49.902;8.590;2023-02-05T09:47:31;5.10;99.90
7494;DHT22;3788;49.902;8.590;2023-02-05T09:50:04;5.10;99.90
7494;DHT22;3788;49.902;8.590;2023-02-05T09:52:41;5.10;99.90
7494;DHT22;3788;49.902;8.590;2023-02-05T09:55:18;5.10;99.90
7494;DHT22;3788;49.902;8.590;2023-02-05T09:57:45;5.20;99.90
7494;DHT22;3788;49.902;8.590;2023-02-05T10:00:19;5.20;99.90
7494;DHT22;3788;49.902;8.590;2023-02-05T10:02:49;5.30;99.90
7494;DHT22;3788;49.902;8.590;2023-02-05T10:05:20;5.30;99.90
7494;DHT22;3788;49.902;8.590;2023-02-05T10:07:56;5.30;99.90
7494;DHT22;3788;49.902;8.590;2023-02-05T10:10:25;5.30;99.90
7494;DHT22;3788;49.902;8.590;2023-02-05T10:13:19;5.30;99.90
7494;DHT22;3788;49.902;8.590;2023-02-05T10:16:04;5.30;99.90
7494;DHT22;3788;49.902;8.590;2023-02-05T10:18:42;5.30;99.90
7494;DHT22;3788;49.902;8.590;2023-02-05T10:21:24;5.40;99.90
7494;DHT22;3788;49.902;8.590;2023-02-05T10:24:05;5.40;99.90
7494;DHT22;3788;49.902;8.590;2023-02-05T10:26:40;5.50;99.90
7494;DHT22;3788;49.902;8.590;2023-02-05T10:29:19;5.50;99.90
7494;DHT22;3788;49.902;8.590;2023-02-05T10:34:54;5.50;99.90
7494;DHT22;3788;49.902;8.590;2023-02-05T10:37:29;5.50;99.90
7494;DHT22;3788;49.902;8.590;2023-02-05T10:39:56;5.50;99.90
7494;DHT22;3788;49.902;8.590;2023-02-05T10:42:27;5.50;99.90
7494;DHT22;3788;49.902;8.590;2023-02-05T10:45:04;5.50;99.90
7494;DHT22;3788;49.902;8.590;2023-02-05T10:47:43;5.50;99.90
7494;DHT22;3788;49.902;8.590;2023-02-05T10:50:18;5.50;99.90
7494;DHT22;3788;49.902;8.590;2023-02-05T10:52:48;5.50;99.90
7494;DHT22;3788;49.902;8.590;2023-02-05T10:55:15;5.50;99.90
7494;DHT22;3788;49.902;8.590;2023-02-05T10:57:41;5.50;99.90
7494;DHT22;3788;49.902;8.590;2023-02-05T11:00:14;5.50;99.90
7494;DHT22;3788;49.902;8.590;2023-02-05T11:02:46;5.50;99.90
7494;DHT22;3788;49.902;8.590;2023-02-05T11:05:18;5.50;99.90
7494;DHT22;3788;49.902;8.590;2023-02-05T11:07:47;5.50;99.90
7494;DHT22;3788;49.902;8.590;2023-02-05T11:10:16;5.40;99.90
7494;DHT22;3788;49.902;8.590;2023-02-05T11:12:44;5.40;99.90
7494;DHT22;3788;49.902;8.590;2023-02-05T11:15:21;5.50;99.90
7494;DHT22;3788;49.902;8.590;2023-02-05T11:17:55;5.40;99.90
7494;DHT22;3788;49.902;8.590;2023-02-05T11:20:27;5.50;99.90
7494;DHT22;3788;49.902;8.590;2023-02-05T11:23:06;5.50;99.90
7494;DHT22;3788;49.902;8.590;2023-02-05T11:25:34;5.50;99.90
7494;DHT22;3788;49.902;8.590;2023-02-05T11:28:02;5.50;99.90
7494;DHT22;3788;49.902;8.590;2023-02-05T11:30:31;5.50;99.90
7494;DHT22;3788;49.902;8.590;2023-02-05T11:33:16;5.50;99.90
7494;DHT22;3788;49.902;8.590;2023-02-05T11:35:48;5.60;99.90
7494;DHT22;3788;49.902;8.590;2023-02-05T11:38:23;5.60;99.90
7494;DHT22;3788;49.902;8.590;2023-02-05T11:40:55;5.60;99.90
7494;DHT22;3788;49.902;8.590;2023-02-05T11:43:26;5.60;99.90
7494;DHT22;3788;49.902;8.590;2023-02-05T11:45:55;5.60;99.90
7494;DHT22;3788;49.902;8.590;2023-02-05T11:48:30;5.70;99.90
7494;DHT22;3788;49.902;8.590;2023-02-05T11:50:58;5.70;99.90
7494;DHT22;3788;49.902;8.590;2023-02-05T11:53:26;5.70;99.90
7494;DHT22;3788;49.902;8.590;2023-02-05T11:55:54;5.70;99.90
7494;DHT22;3788;49.902;8.590;2023-02-05T11:58:24;5.70;99.90
7494;DHT22;3788;49.902;8.590;2023-02-05T12:00:54;5.70;99.90
7494;DHT22;3788;49.902;8.590;2023-02-05T12:03:22;5.80;99.90
7494;DHT22;3788;49.902;8.590;2023-02-05T12:05:54;5.80;99.90
7494;DHT22;3788;49.902;8.590;2023-02-05T12:08:31;5.90;99.90
7494;DHT22;3788;49.902;8.590;2023-02-05T12:11:05;5.90;99.90
7494;DHT22;3788;49.902;8.590;2023-02-05T12:13:44;5.90;99.90
7494;DHT22;3788;49.902;8.590;2023-02-05T12:19:03;6.00;99.90
7494;DHT22;3788;49.902;8.590;2023-02-05T12:21:46;6.00;99.90
7494;DHT22;3788;49.902;8.590;2023-02-05T12:24:43;6.00;99.90
7494;DHT22;3788;49.902;8.590;2023-02-05T12:27:23;6.00;99.90
7494;DHT22;3788;49.902;8.590;2023-02-05T12:30:03;6.00;99.90
7494;DHT22;3788;49.902;8.590;2023-02-05T12:32:41;6.10;99.90
7494;DHT22;3788;49.902;8.590;2023-02-05T12:35:26;6.10;99.90
7494;DHT22;3788;49.902;8.590;2023-02-05T12:38:06;6.10;99.90
7494;DHT22;3788;49.902;8.590;2023-02-05T12:40:43;6.10;99.90
7494;DHT22;3788;49.902;8.590;2023-02-05T12:43:27;6.20;99.90
7494;DHT22;3788;49.902;8.590;2023-02-05T12:46:01;6.20;99.90
7494;DHT22;3788;49.902;8.590;2023-02-05T12:48:46;6.20;99.90
7494;DHT22;3788;49.902;8.590;2023-02-05T12:51:26;6.20;99.90
7494;DHT22;3788;49.902;8.590;2023-02-05T12:54:16;6.20;99.90
7494;DHT22;3788;49.902;8.590;2023-02-05T12:56:54;6.20;99.90
7494;DHT22;3788;49.902;8.590;2023-02-05T12:59:31;6.30;99.90
7494;DHT22;3788;49.902;8.590;2023-02-05T13:02:05;6.40;99.90
7494;DHT22;3788;49.902;8.590;2023-02-05T13:04:35;6.40;99.90
7494;DHT22;3788;49.902;8.590;2023-02-05T13:07:09;6.50;99.90
7494;DHT22;3788;49.902;8.590;2023-02-05T13:09:46;6.60;99.90
7494;DHT22;3788;49.902;8.590;2023-02-05T13:12:17;6.60;99.90
7494;DHT22;3788;49.902;8.590;2023-02-05T13:14:53;6.70;99.90
7494;DHT22;3788;49.902;8.590;2023-02-05T13:17:23;6.70;99.90
7494;DHT22;3788;49.902;8.590;2023-02-05T13:19:54;6.80;99.90
7494;DHT22;3788;49.902;8.590;2023-02-05T13:22:25;6.80;99.90
7494;DHT22;3788;49.902;8.590;2023-02-05T13:25:19;6.90;99.90
7494;DHT22;3788;49.902;8.590;2023-02-05T13:28:18;6.90;99.90
7494;DHT22;3788;49.902;8.590;2023-02-05T13:31:24;7.00;99.90
7494;DHT22;3788;49.902;8.590;2023-02-05T13:33:53;7.10;99.90
7494;DHT22;3788;49.902;8.590;2023-02-05T13:36:50;7.20;99.90
7494;DHT22;3788;49.902;8.590;2023-02-05T13:39:39;7.30;99.90
7494;DHT22;3788;49.902;8.590;2023-02-05T13:42:24;7.30;99.90
7494;DHT22;3788;49.902;8.590;2023-02-05T13:45:24;7.30;99.90
7494;DHT22;3788;49.902;8.590;2023-02-05T13:48:13;7.40;99.90
7494;DHT22;3788;49.902;8.590;2023-02-05T13:51:09;7.50;99.90
7494;DHT22;3788;49.902;8.590;2023-02-05T13:53:52;7.40;99.90
7494;DHT22;3788;49.902;8.590;2023-02-05T13:56:34;7.40;99.90
7494;DHT22;3788;49.902;8.590;2023-02-05T13:59:09;7.40;99.90
7494;DHT22;3788;49.902;8.590;2023-02-05T14:01:40;7.40;99.90
7494;DHT22;3788;49.902;8.590;2023-02-05T14:04:17;7.40;99.90
7494;DHT22;3788;49.902;8.590;2023-02-05T14:06:54;7.40;99.90
7494;DHT22;3788;49.902;8.590;2023-02-05T14:09:25;7.40;99.90
7494;DHT22;3788;49.902;8.590;2023-02-05T14:11:57;7.40;99.90
7494;DHT22;3788;49.902;8.590;2023-02-05T14:14:30;7.40;99.90
7494;DHT22;3788;49.902;8.590;2023-02-05T14:16:59;7.30;99.90
7494;DHT22;3788;49.902;8.590;2023-02-05T14:19:51;7.20;99.90
7494;DHT22;3788;49.902;8.590;2023-02-05T14:22:39;7.10;99.90
7494;DHT22;3788;49.902;8.590;2023-02-05T14:25:43;7.00;99.90
7494;DHT22;3788;49.902;8.590;2023-02-05T14:28:45;7.00;99.90
7494;DHT22;3788;49.902;8.590;2023-02-05T14:31:45;6.90;99.90
7494;DHT22;3788;49.902;8.590;2023-02-05T14:34:43;6.90;99.90
7494;DHT22;3788;49.902;8.590;2023-02-05T14:37:24;6.80;99.90
7494;DHT22;3788;49.902;8.590;2023-02-05T14:39:51;6.80;99.90
7494;DHT22;3788;49.902;8.590;2023-02-05T14:42:19;6.70;99.90
7494;DHT22;3788;49.902;8.590;2023-02-05T14:44:51;6.70;99.90
7494;DHT22;3788;49.902;8.590;2023-02-05T14:47:24;6.70;99.90
7494;DHT22;3788;49.902;8.590;2023-02-05T14:50:00;6.60;99.90
7494;DHT22;3788;49.902;8.590;2023-02-05T14:52:30;6.60;99.90
7494;DHT22;3788;49.902;8.590;2023-02-05T14:55:01;6.60;99.90
7494;DHT22;3788;49.902;8.590;2023-02-05T14:57:39;6.50;99.90
7494;DHT22;3788;49.902;8.590;2023-02-05T15:00:25;6.50;99.90
7494;DHT22;3788;49.902;8.590;2023-02-05T15:03:29;6.50;99.90
7494;DHT22;3788;49.902;8.590;2023-02-05T15:06:04;6.50;99.90
7494;DHT22;3788;49.902;8.590;2023-02-05T15:08:43;6.50;99.90
7494;DHT22;3788;49.902;8.590;2023-02-05T15:11:16;6.50;99.90
7494;DHT22;3788;49.902;8.590;2023-02-05T15:16:46;6.50;99.90
7494;DHT22;3788;49.902;8.590;2023-02-05T15:19:15;6.50;99.90
7494;DHT22;3788;49.902;8.590;2023-02-05T15:21:46;6.50;99.90
7494;DHT22;3788;49.902;8.590;2023-02-05T15:24:17;6.50;99.90
7494;DHT22;3788;49.902;8.590;2023-02-05T15:26:49;6.50;99.90
7494;DHT22;3788;49.902;8.590;2023-02-05T15:29:20;6.50;99.90
7494;DHT22;3788;49.902;8.590;2023-02-05T15:31:51;6.40;99.90
7494;DHT22;3788;49.902;8.590;2023-02-05T15:34:38;6.40;99.90
7494;DHT22;3788;49.902;8.590;2023-02-05T15:37:16;6.40;99.90
7494;DHT22;3788;49.902;8.590;2023-02-05T15:39:49;6.40;99.90
7494;DHT22;3788;49.902;8.590;2023-02-05T15:42:18;6.40;99.90
7494;DHT22;3788;49.902;8.590;2023-02-05T15:44:46;6.40;99.90
7494;DHT22;3788;49.902;8.590;2023-02-05T15:47:16;6.40;99.90
7494;DHT22;3788;49.902;8.590;2023-02-05T15:49:48;6.40;99.90
7494;DHT22;3788;49.902;8.590;2023-02-05T15:52:18;6.30;99.90
7494;DHT22;3788;49.902;8.590;2023-02-05T15:54:45;6.30;99.90
7494;DHT22;3788;49.902;8.590;2023-02-05T15:57:18;6.30;99.90
7494;DHT22;3788;49.902;8.590;2023-02-05T15:59:45;6.20;99.90
7494;DHT22;3788;49.902;8.590;2023-02-05T16:02:16;6.20;99.90
7494;DHT22;3788;49.902;8.590;2023-02-05T16:04:52;6.20;99.90
7494;DHT22;3788;49.902;8.590;2023-02-05T16:07:22;6.20;99.90
7494;DHT22;3788;49.902;8.590;2023-02-05T16:09:54;6.20;99.90
7494;DHT22;3788;49.902;8.590;2023-02-05T16:12:21;6.10;99.90
7494;DHT22;3788;49.902;8.590;2023-02-05T16:14:57;6.10;99.90
7494;DHT22;3788;49.902;8.590;2023-02-05T16:17:26;6.20;99.90
7494;DHT22;3788;49.902;8.590;2023-02-05T16:20:02;6.20;99.90
7494;DHT22;3788;49.902;8.590;2023-02-05T16:22:35;6.10;99.90
7494;DHT22;3788;49.902;8.590;2023-02-05T16:25:05;6.10;99.90
7494;DHT22;3788;49.902;8.590;2023-02-05T16:27:34;6.10;99.90
7494;DHT22;3788;49.902;8.590;2023-02-05T16:30:11;6.00;99.90
7494;DHT22;3788;49.902;8.590;2023-02-05T16:32:40;6.00;99.90
7494;DHT22;3788;49.902;8.590;2023-02-05T16:35:18;6.00;99.90
7494;DHT22;3788;49.902;8.590;2023-02-05T16:37:47;6.00;99.90
7494;DHT22;3788;49.902;8.590;2023-02-05T16:40:14;5.90;99.90
7494;DHT22;3788;49.902;8.590;2023-02-05T16:42:43;5.90;99.90
7494;DHT22;3788;49.902;8.590;2023-02-05T16:45:19;5.90;99.90
7494;DHT22;3788;49.902;8.590;2023-02-05T16:48:18;5.90;99.90
7494;DHT22;3788;49.902;8.590;2023-02-05T16:50:48;5.90;99.90
7494;DHT22;3788;49.902;8.590;2023-02-05T16:53:19;5.90;99.90
7494;DHT22;3788;49.902;8.590;2023-02-05T16:55:47;5.90;99.90